Time;durP1;ratioP1;P1;durP2;ratioP2;P2;SDS_P1;SDS_P2;PMS_P1;PMS_P2;Temp;Humidity;BMP_temperature;BMP_pressure;BME280_temperature;BME280_humidity;BME280_pressure;Samples;Min_cycle;Max_cycle;Signal;HPM_P1;HPM_P2
2023/09/16 00:01:53;;;;;;;5.77;5.00;;;20.30;89.80;;;;;;5074791;28;20985;-58
2023/09/16 00:04:23;;;;;;;6.30;5.00;;;20.30;89.80;;;;;;5075069;28;20457;-58
2023/09/16 00:06:51;;;;;;;6.50;4.90;;;20.30;89.80;;;;;;5074984;28;20477;-58
2023/09/16 00:09:18;;;;;;;5.77;5.17;;;20.30;89.80;;;;;;5074984;28;20472;-58
2023/09/16 00:11:44;;;;;;;5.67;5.10;;;20.20;89.60;;;;;;5074946;28;20437;-58
2023/09/16 00:14:11;;;;;;;6.50;4.60;;;20.20;89.70;;;;;;5074794;28;20459;-57
2023/09/16 00:16:38;;;;;;;5.70;4.90;;;20.20;89.70;;;;;;5074891;28;20485;-58
2023/09/16 00:19:05;;;;;;;6.90;4.83;;;20.20;89.80;;;;;;5074720;28;20460;-58
2023/09/16 00:21:31;;;;;;;9.00;5.07;;;20.20;89.70;;;;;;5074686;28;20445;-58
2023/09/16 00:24:00;;;;;;;5.60;5.00;;;20.20;89.50;;;;;;5074485;28;20449;-58
2023/09/16 00:26:27;;;;;;;5.60;5.03;;;20.20;89.60;;;;;;5074633;28;20508;-58
2023/09/16 00:28:54;;;;;;;7.13;4.90;;;20.10;89.60;;;;;;5074563;28;20590;-58
2023/09/16 00:31:21;;;;;;;7.90;6.20;;;20.10;89.70;;;;;;5074661;28;20441;-58
2023/09/16 00:33:49;;;;;;;7.10;5.60;;;20.10;89.70;;;;;;5074246;28;20452;-58
2023/09/16 00:36:15;;;;;;;7.53;5.30;;;20.00;89.60;;;;;;5074547;28;20523;-58
2023/09/16 00:38:42;;;;;;;5.60;5.10;;;20.00;89.60;;;;;;5074454;28;20465;-58
2023/09/16 00:41:12;;;;;;;6.30;5.03;;;20.00;89.80;;;;;;5074471;28;20440;-57
2023/09/16 00:43:39;;;;;;;6.10;5.53;;;19.90;89.70;;;;;;5074270;28;20831;-58
2023/09/16 00:46:05;;;;;;;6.37;5.77;;;19.90;89.90;;;;;;5074234;28;20535;-58
2023/09/16 00:48:32;;;;;;;9.40;5.40;;;19.90;90.00;;;;;;5074077;28;20445;-58
2023/09/16 00:50:59;;;;;;;5.63;5.13;;;19.80;90.10;;;;;;5074100;28;20723;-58
2023/09/16 00:53:27;;;;;;;8.90;5.60;;;19.80;90.10;;;;;;5074112;28;20523;-58
2023/09/16 00:55:54;;;;;;;5.30;4.90;;;19.80;90.30;;;;;;5074114;28;20477;-58
2023/09/16 00:58:22;;;;;;;5.60;5.10;;;19.80;90.40;;;;;;5073962;28;20464;-58
2023/09/16 01:00:49;;;;;;;6.70;5.33;;;19.80;90.50;;;;;;5073861;28;20449;-58
2023/09/16 01:03:16;;;;;;;6.53;5.93;;;19.80;90.70;;;;;;5073696;28;20459;-58
2023/09/16 01:05:46;;;;;;;5.90;5.30;;;19.80;90.90;;;;;;5073802;28;20437;-58
2023/09/16 01:08:13;;;;;;;6.10;5.23;;;19.80;91.00;;;;;;5073561;28;20869;-58
2023/09/16 01:10:41;;;;;;;5.87;5.37;;;19.80;91.10;;;;;;5073823;28;20464;-58
2023/09/16 01:13:08;;;;;;;5.37;4.87;;;19.80;91.10;;;;;;5073688;28;20476;-58
2023/09/16 01:15:40;;;;;;;5.87;5.20;;;19.80;91.20;;;;;;5073427;28;20953;-58
2023/09/16 01:18:13;;;;;;;5.00;4.60;;;19.80;91.20;;;;;;5074382;28;20424;-58
2023/09/16 01:20:40;;;;;;;7.07;5.03;;;19.80;91.20;;;;;;5073599;28;20461;-58
2023/09/16 01:23:07;;;;;;;9.10;5.20;;;19.80;91.60;;;;;;5073216;28;20824;-58
2023/09/16 01:25:35;;;;;;;5.97;5.37;;;19.80;91.20;;;;;;5073624;28;20512;-58
2023/09/16 01:28:04;;;;;;;5.93;5.33;;;19.80;91.20;;;;;;5073316;28;20476;-57
2023/09/16 01:30:35;;;;;;;6.17;5.57;;;19.70;91.10;;;;;;5073778;28;20475;-58
2023/09/16 01:33:09;;;;;;;5.23;4.40;;;19.80;91.20;;;;;;5073287;28;20910;-58
2023/09/16 01:35:38;;;;;;;5.70;4.83;;;19.80;91.20;;;;;;5073540;28;20457;-58
2023/09/16 01:38:07;;;;;;;5.77;5.17;;;19.70;91.20;;;;;;5073438;28;20491;-58
2023/09/16 01:40:37;;;;;;;5.80;4.83;;;19.70;91.50;;;;;;5073448;28;20492;-58
2023/09/16 01:43:04;;;;;;;5.77;5.07;;;19.70;91.10;;;;;;5073572;28;20448;-58
2023/09/16 01:45:40;;;;;;;5.53;4.93;;;19.70;91.00;;;;;;5073668;28;20470;-58
2023/09/16 01:48:07;;;;;;;5.13;4.73;;;19.70;91.10;;;;;;5073337;28;20479;-58
2023/09/16 01:50:34;;;;;;;7.47;5.10;;;19.60;91.10;;;;;;5073331;28;20468;-58
2023/09/16 01:53:01;;;;;;;5.17;4.67;;;19.60;91.20;;;;;;5073326;28;20821;-58
2023/09/16 01:55:28;;;;;;;9.40;5.40;;;19.60;91.20;;;;;;5073042;28;20966;-58
2023/09/16 01:57:56;;;;;;;5.90;5.30;;;19.60;91.10;;;;;;5073233;28;20456;-58
2023/09/16 02:00:22;;;;;;;5.73;5.23;;;19.50;91.00;;;;;;5073002;28;20468;-58
2023/09/16 02:02:49;;;;;;;5.13;4.73;;;19.50;90.90;;;;;;5073273;28;20437;-58
2023/09/16 02:05:16;;;;;;;6.60;5.10;;;19.50;90.90;;;;;;5072912;28;20448;-58
2023/09/16 02:07:43;;;;;;;5.90;5.30;;;19.50;91.00;;;;;;5073148;28;20476;-58
2023/09/16 02:10:10;;;;;;;5.27;4.77;;;19.50;91.00;;;;;;5073496;28;20551;-58
2023/09/16 02:12:37;;;;;;;6.77;5.47;;;19.40;90.90;;;;;;5077330;28;20506;-58
2023/09/16 02:15:07;;;;;;;5.50;4.67;;;19.40;90.90;;;;;;5077126;28;20464;-58
2023/09/16 02:17:34;;;;;;;5.93;4.43;;;19.40;91.00;;;;;;5077352;28;20444;-58
2023/09/16 02:20:01;;;;;;;6.63;5.40;;;19.40;90.90;;;;;;5076662;28;20464;-58
2023/09/16 02:22:28;;;;;;;5.47;4.97;;;19.30;90.90;;;;;;5077036;28;20449;-58
2023/09/16 02:24:54;;;;;;;7.30;5.17;;;19.30;91.00;;;;;;5076892;28;20452;-58
2023/09/16 02:27:21;;;;;;;5.27;4.77;;;19.30;91.00;;;;;;5076984;28;20847;-58
2023/09/16 02:29:49;;;;;;;7.83;5.17;;;19.30;91.00;;;;;;5076951;28;20468;-58
2023/09/16 02:32:17;;;;;;;6.93;5.30;;;19.30;91.00;;;;;;5076543;28;20801;-58
2023/09/16 02:34:43;;;;;;;5.90;5.03;;;19.30;91.10;;;;;;5076508;28;20835;-58
2023/09/16 02:37:10;;;;;;;5.67;5.17;;;19.20;91.10;;;;;;5076822;28;20436;-58
2023/09/16 02:39:37;;;;;;;6.00;5.23;;;19.20;91.10;;;;;;5076657;28;20551;-57
2023/09/16 02:42:04;;;;;;;5.73;4.97;;;19.10;91.10;;;;;;5076688;28;20456;-58
2023/09/16 02:44:31;;;;;;;5.50;4.57;;;19.10;91.20;;;;;;5076704;28;20451;-58
2023/09/16 02:46:57;;;;;;;5.50;5.00;;;19.10;91.20;;;;;;5076458;28;20993;-58
2023/09/16 02:49:29;;;;;;;4.87;4.43;;;19.10;91.20;;;;;;5076239;28;20468;-58
2023/09/16 02:51:55;;;;;;;7.50;5.47;;;19.10;91.30;;;;;;5076649;28;20436;-58
2023/09/16 02:54:22;;;;;;;5.40;4.90;;;19.00;91.30;;;;;;5076663;28;20447;-58
2023/09/16 02:56:49;;;;;;;8.03;5.77;;;19.00;91.40;;;;;;5076504;28;20464;-58
2023/09/16 02:59:15;;;;;;;5.60;5.20;;;19.00;91.50;;;;;;5076358;28;20811;-58
2023/09/16 03:01:43;;;;;;;5.30;4.80;;;19.00;91.50;;;;;;5076562;28;20487;-58
2023/09/16 03:04:10;;;;;;;5.50;5.00;;;19.00;91.70;;;;;;5076722;28;20448;-58
2023/09/16 03:06:37;;;;;;;5.77;5.27;;;18.90;91.60;;;;;;5076775;28;20478;-58
2023/09/16 03:09:05;;;;;;;7.17;6.47;;;18.90;91.60;;;;;;5076537;28;20461;-58
2023/09/16 03:11:31;;;;;;;6.83;5.37;;;18.90;91.70;;;;;;5076721;28;20444;-58
2023/09/16 03:13:58;;;;;;;6.10;5.60;;;18.90;91.90;;;;;;5076333;28;20447;-58
2023/09/16 03:16:25;;;;;;;7.07;6.47;;;18.80;91.80;;;;;;5076441;28;20445;-58
2023/09/16 03:18:53;;;;;;;5.93;5.33;;;18.80;91.90;;;;;;5076339;28;20468;-58
2023/09/16 03:21:23;;;;;;;7.27;6.47;;;18.80;92.00;;;;;;5075603;28;21008;-58
2023/09/16 03:23:51;;;;;;;6.50;5.90;;;18.80;92.10;;;;;;5075467;28;20453;-58
2023/09/16 03:26:18;;;;;;;10.40;6.90;;;18.80;92.20;;;;;;5076098;28;20444;-58
2023/09/16 03:28:46;;;;;;;6.70;5.47;;;18.80;92.30;;;;;;5075924;28;20481;-58
2023/09/16 03:31:13;;;;;;;6.57;5.70;;;18.70;92.30;;;;;;5076115;28;20451;-58
2023/09/16 03:33:40;;;;;;;6.93;5.87;;;18.70;92.40;;;;;;5076434;28;20445;-57
2023/09/16 03:36:07;;;;;;;6.63;6.03;;;18.70;92.60;;;;;;5075934;28;20476;-58
2023/09/16 03:38:35;;;;;;;8.00;7.00;;;18.70;92.60;;;;;;5076194;28;20440;-57
2023/09/16 03:41:03;;;;;;;8.00;6.77;;;18.70;92.70;;;;;;5076363;28;20451;-58
2023/09/16 03:43:30;;;;;;;7.83;5.43;;;18.70;92.70;;;;;;5076522;28;20531;-58
2023/09/16 03:45:56;;;;;;;7.10;6.20;;;18.60;92.80;;;;;;5076357;28;20445;-58
2023/09/16 03:48:23;;;;;;;6.00;5.40;;;18.60;92.90;;;;;;5076795;28;20530;-59
2023/09/16 03:50:50;;;;;;;7.07;6.10;;;18.60;93.00;;;;;;5076521;28;20441;-57
2023/09/16 03:53:18;;;;;;;6.80;6.10;;;18.60;93.00;;;;;;5076624;28;20452;-58
2023/09/16 03:55:45;;;;;;;5.90;5.40;;;18.60;93.10;;;;;;5075963;28;20445;-58
2023/09/16 03:58:14;;;;;;;12.20;6.13;;;18.60;93.10;;;;;;5074959;28;20789;-58
2023/09/16 04:00:40;;;;;;;5.70;5.20;;;18.60;93.30;;;;;;5075558;28;20464;-58
2023/09/16 04:03:07;;;;;;;7.03;6.43;;;18.60;93.30;;;;;;5075361;28;20499;-58
2023/09/16 04:05:34;;;;;;;6.90;5.80;;;18.60;93.30;;;;;;5075285;28;20444;-58
2023/09/16 04:08:00;;;;;;;6.20;5.60;;;18.60;93.30;;;;;;5075047;28;20481;-58
2023/09/16 04:10:27;;;;;;;8.90;6.83;;;18.60;93.40;;;;;;5074894;28;20845;-58
2023/09/16 04:12:54;;;;;;;5.83;5.33;;;18.60;93.40;;;;;;5074917;28;20818;-58
2023/09/16 04:15:22;;;;;;;7.40;5.60;;;18.60;93.50;;;;;;5074543;28;20828;-58
2023/09/16 04:17:49;;;;;;;7.03;5.90;;;18.60;93.40;;;;;;5074879;28;20440;-58
2023/09/16 04:20:16;;;;;;;7.67;5.97;;;18.50;93.40;;;;;;5074755;28;20472;-58
2023/09/16 04:22:43;;;;;;;7.47;6.53;;;18.50;93.40;;;;;;5074764;28;20449;-58
2023/09/16 04:25:09;;;;;;;6.83;6.10;;;18.50;93.30;;;;;;5074557;28;20460;-58
2023/09/16 04:27:36;;;;;;;7.83;6.33;;;18.50;93.20;;;;;;5074631;28;20491;-58
2023/09/16 04:30:03;;;;;;;6.70;6.10;;;18.50;93.20;;;;;;5074465;28;20473;-58
2023/09/16 04:32:31;;;;;;;6.40;5.90;;;18.50;93.10;;;;;;5074663;28;20556;-58
2023/09/16 04:34:58;;;;;;;6.80;6.20;;;18.50;93.10;;;;;;5074204;28;20441;-58
2023/09/16 04:37:25;;;;;;;6.87;6.30;;;18.40;93.00;;;;;;5074309;28;20479;-57
2023/09/16 04:39:52;;;;;;;6.33;5.77;;;18.40;93.10;;;;;;5074073;28;20997;-58
2023/09/16 04:42:19;;;;;;;7.63;6.87;;;18.30;93.10;;;;;;5074374;28;20453;-58
2023/09/16 04:44:48;;;;;;;6.27;5.67;;;18.30;93.10;;;;;;5074139;28;20494;-57
2023/09/16 04:47:15;;;;;;;7.10;6.40;;;18.30;93.10;;;;;;5074205;28;20484;-58
2023/09/16 04:49:43;;;;;;;6.87;6.27;;;18.20;93.20;;;;;;5074102;28;20464;-58
2023/09/16 04:52:10;;;;;;;5.50;4.93;;;18.20;93.20;;;;;;5074172;28;20444;-58
2023/09/16 04:54:37;;;;;;;6.27;5.77;;;18.20;93.20;;;;;;5074171;28;20452;-58
2023/09/16 04:57:05;;;;;;;7.57;5.80;;;18.20;93.20;;;;;;5073750;28;20484;-58
2023/09/16 04:59:32;;;;;;;6.23;5.53;;;18.10;93.20;;;;;;5073892;28;20464;-58
2023/09/16 05:01:59;;;;;;;6.63;5.90;;;18.10;93.20;;;;;;5073813;28;20453;-58
2023/09/16 05:04:26;;;;;;;8.33;5.87;;;18.10;93.20;;;;;;5073935;28;20448;-58
2023/09/16 05:06:54;;;;;;;5.70;5.20;;;18.10;93.30;;;;;;5073884;28;20441;-58
2023/09/16 05:09:21;;;;;;;5.67;5.23;;;18.10;93.30;;;;;;5073376;28;20491;-58
2023/09/16 05:11:48;;;;;;;9.17;6.47;;;18.10;93.30;;;;;;5073705;28;20489;-58
2023/09/16 05:14:15;;;;;;;6.60;6.00;;;18.00;93.30;;;;;;5073601;28;20501;-58
2023/09/16 05:16:42;;;;;;;7.10;5.60;;;18.00;93.30;;;;;;5073742;28;20445;-58
2023/09/16 05:19:08;;;;;;;6.43;5.77;;;18.00;93.40;;;;;;5073859;28;20464;-58
2023/09/16 05:21:35;;;;;;;7.13;5.27;;;18.00;93.50;;;;;;5073614;28;20443;-58
2023/09/16 05:24:03;;;;;;;5.93;5.33;;;17.90;93.50;;;;;;5073384;28;20456;-58
2023/09/16 05:26:30;;;;;;;6.87;6.27;;;17.90;93.60;;;;;;5073712;28;20448;-58
2023/09/16 05:28:57;;;;;;;7.00;4.80;;;17.90;93.70;;;;;;5073390;28;21017;-58
2023/09/16 05:31:24;;;;;;;5.30;4.90;;;17.90;93.80;;;;;;5073549;28;20833;-58
2023/09/16 05:33:51;;;;;;;5.13;4.70;;;17.80;93.80;;;;;;5073747;28;20491;-58
2023/09/16 05:36:18;;;;;;;8.47;5.43;;;17.80;93.80;;;;;;5093801;28;20444;-58
2023/09/16 05:38:44;;;;;;;5.70;5.20;;;17.80;93.80;;;;;;5093500;28;20462;-58
2023/09/16 05:41:12;;;;;;;6.00;5.17;;;17.80;93.90;;;;;;5093602;28;20436;-58
2023/09/16 05:43:39;;;;;;;6.43;5.93;;;17.80;94.00;;;;;;5093537;28;20439;-58
2023/09/16 05:46:06;;;;;;;5.37;4.83;;;17.80;94.10;;;;;;5092881;28;20443;-58
2023/09/16 05:48:32;;;;;;;5.87;5.37;;;17.80;94.20;;;;;;5093146;28;20476;-58
2023/09/16 05:51:02;;;;;;;6.73;5.43;;;17.80;94.20;;;;;;5093164;28;20812;-58
2023/09/16 05:53:30;;;;;;;11.27;7.60;;;17.80;94.30;;;;;;5093493;28;20486;-58
2023/09/16 05:55:57;;;;;;;6.97;6.27;;;17.80;94.30;;;;;;5093695;28;20466;-58
2023/09/16 05:58:25;;;;;;;7.07;5.73;;;17.80;94.40;;;;;;5093370;28;20447;-58
2023/09/16 06:00:55;;;;;;;6.97;6.27;;;17.90;94.50;;;;;;5093398;28;20455;-57
2023/09/16 06:03:22;;;;;;;5.63;5.23;;;17.90;94.50;;;;;;5093423;28;20478;-58
2023/09/16 06:05:48;;;;;;;5.50;5.00;;;17.90;94.60;;;;;;5093343;28;20471;-58
2023/09/16 06:08:15;;;;;;;8.70;4.90;;;18.00;94.70;;;;;;5093301;28;20502;-58
2023/09/16 06:10:42;;;;;;;8.33;5.43;;;18.10;94.80;;;;;;5093101;28;20977;-58
2023/09/16 06:13:08;;;;;;;6.83;6.13;;;18.10;94.90;;;;;;5093169;28;20436;-58
2023/09/16 06:15:37;;;;;;;8.27;5.70;;;18.20;95.10;;;;;;5092944;28;20941;-58
2023/09/16 06:18:06;;;;;;;6.47;5.77;;;18.20;95.20;;;;;;5092944;28;20929;-58
2023/09/16 06:20:33;;;;;;;5.87;5.37;;;18.30;95.10;;;;;;5093182;28;20517;-58
2023/09/16 06:23:02;;;;;;;5.63;5.07;;;18.40;95.10;;;;;;5093227;28;20440;-58
2023/09/16 06:25:29;;;;;;;7.00;5.37;;;18.40;94.90;;;;;;5093305;28;20450;-58
2023/09/16 06:27:58;;;;;;;5.40;4.80;;;18.50;94.90;;;;;;5093486;28;20480;-58
2023/09/16 06:30:24;;;;;;;5.40;4.70;;;18.60;94.80;;;;;;5093153;28;21041;-58
2023/09/16 06:32:53;;;;;;;5.90;5.30;;;18.60;94.50;;;;;;5093291;28;20853;-58
2023/09/16 06:35:20;;;;;;;5.40;4.90;;;18.70;94.40;;;;;;5093194;28;20483;-58
2023/09/16 06:37:47;;;;;;;5.17;4.43;;;18.80;94.30;;;;;;5093181;28;20446;-58
2023/09/16 06:40:13;;;;;;;5.00;4.50;;;18.80;94.20;;;;;;5093055;28;20961;-58
2023/09/16 06:42:40;;;;;;;6.17;4.60;;;18.90;94.10;;;;;;5092846;28;20947;-58
2023/09/16 06:45:07;;;;;;;5.30;4.40;;;19.00;94.10;;;;;;5093300;28;20447;-58
2023/09/16 06:47:34;;;;;;;5.57;4.63;;;19.10;93.90;;;;;;5092945;28;20439;-58
2023/09/16 06:50:02;;;;;;;5.80;4.57;;;19.10;93.40;;;;;;5092844;28;20463;-58
2023/09/16 06:52:29;;;;;;;3.57;3.37;;;19.30;93.20;;;;;;5092634;28;20960;-58
2023/09/16 06:54:55;;;;;;;5.40;4.90;;;19.30;93.20;;;;;;5092938;28;20458;-58
2023/09/16 06:57:22;;;;;;;4.70;4.23;;;19.40;93.00;;;;;;5095087;28;20933;-58
2023/09/16 06:59:49;;;;;;;5.70;4.50;;;19.50;92.80;;;;;;5096257;28;20974;-58
2023/09/16 07:02:16;;;;;;;4.90;3.63;;;19.60;92.50;;;;;;5096279;28;20964;-58
2023/09/16 07:04:45;;;;;;;4.30;3.97;;;19.70;92.40;;;;;;5096549;28;20451;-58
2023/09/16 07:07:13;;;;;;;4.30;4.00;;;19.80;92.10;;;;;;5096508;28;20542;-58
2023/09/16 07:09:40;;;;;;;4.40;4.10;;;19.90;91.90;;;;;;5096895;28;20496;-58
2023/09/16 07:12:07;;;;;;;4.37;3.97;;;20.00;91.40;;;;;;5096440;28;20454;-58
2023/09/16 07:14:37;;;;;;;3.63;3.33;;;20.10;91.20;;;;;;5096342;28;20471;-58
2023/09/16 07:17:04;;;;;;;4.40;4.10;;;20.20;91.10;;;;;;5096314;28;20451;-58
2023/09/16 07:19:31;;;;;;;4.40;4.00;;;20.30;90.90;;;;;;5095993;28;20995;-58
2023/09/16 07:21:58;;;;;;;4.03;3.73;;;20.40;90.70;;;;;;5096394;28;20439;-58
2023/09/16 07:24:26;;;;;;;4.47;4.07;;;20.50;90.40;;;;;;5096017;28;20463;-58
2023/09/16 07:26:53;;;;;;;4.10;3.47;;;20.60;90.10;;;;;;5096105;28;20447;-58
2023/09/16 07:29:20;;;;;;;4.17;3.77;;;20.70;89.70;;;;;;5096027;28;20491;-58
2023/09/16 07:31:47;;;;;;;4.40;4.00;;;20.80;89.20;;;;;;5095652;28;20961;-58
2023/09/16 07:34:15;;;;;;;4.43;4.03;;;21.00;89.00;;;;;;5096123;28;20448;-58
2023/09/16 07:36:42;;;;;;;3.83;3.50;;;21.00;88.20;;;;;;5096245;28;20436;-58
2023/09/16 07:39:08;;;;;;;4.30;4.00;;;21.20;88.70;;;;;;5095589;28;20876;-58
2023/09/16 07:41:38;;;;;;;4.40;4.00;;;21.30;87.50;;;;;;5096015;28;20447;-58
2023/09/16 07:44:05;;;;;;;3.90;3.60;;;21.40;86.90;;;;;;5095792;28;20538;-58
2023/09/16 07:46:31;;;;;;;3.33;3.13;;;21.50;86.00;;;;;;5095721;28;20451;-58
2023/09/16 07:48:59;;;;;;;5.77;4.47;;;21.70;85.40;;;;;;5095617;28;20487;-58
2023/09/16 07:51:26;;;;;;;4.40;4.00;;;21.80;84.90;;;;;;5095555;28;20447;-58
2023/09/16 07:53:53;;;;;;;4.50;4.00;;;21.90;83.90;;;;;;5095352;28;20854;-58
2023/09/16 07:56:20;;;;;;;3.73;3.43;;;22.10;83.80;;;;;;5095507;28;20448;-58
2023/09/16 07:58:48;;;;;;;4.23;3.83;;;22.20;83.20;;;;;;5095324;28;20467;-58
2023/09/16 08:01:15;;;;;;;6.00;4.00;;;22.40;82.90;;;;;;5095426;28;20447;-58
2023/09/16 08:03:42;;;;;;;3.83;3.53;;;22.50;82.20;;;;;;5095456;28;20455;-58
2023/09/16 08:06:09;;;;;;;5.07;4.27;;;22.60;81.50;;;;;;5095436;28;20465;-58
2023/09/16 08:08:35;;;;;;;3.90;3.50;;;22.80;80.60;;;;;;5094476;28;20475;-58
2023/09/16 08:11:02;;;;;;;4.23;3.87;;;22.90;79.80;;;;;;5094903;28;20816;-58
2023/09/16 08:13:29;;;;;;;4.27;3.87;;;23.10;78.80;;;;;;5095344;28;20820;-58
2023/09/16 08:15:57;;;;;;;3.90;3.50;;;23.20;78.30;;;;;;5095192;28;20444;-58
2023/09/16 08:18:24;;;;;;;4.17;3.87;;;23.30;77.60;;;;;;5094709;28;20957;-58
2023/09/16 08:20:50;;;;;;;4.93;4.53;;;23.50;77.20;;;;;;5095121;28;20497;-58
2023/09/16 08:23:17;;;;;;;6.70;4.40;;;23.60;76.90;;;;;;5094633;28;20493;-58
2023/09/16 08:25:45;;;;;;;4.67;4.27;;;23.70;76.50;;;;;;5095104;28;20428;-56
2023/09/16 08:28:11;;;;;;;3.80;3.40;;;23.80;76.20;;;;;;5094547;28;20802;-56
2023/09/16 08:30:38;;;;;;;5.90;3.93;;;23.90;75.70;;;;;;5094785;28;20851;-55
2023/09/16 08:33:06;;;;;;;6.10;5.47;;;24.10;75.50;;;;;;5094856;28;20446;-56
2023/09/16 08:35:33;;;;;;;5.73;4.93;;;24.20;74.80;;;;;;5078711;28;20460;-55
2023/09/16 08:38:01;;;;;;;4.70;4.30;;;24.30;73.40;;;;;;5074469;28;20445;-56
2023/09/16 08:40:29;;;;;;;5.60;5.00;;;24.40;72.40;;;;;;5074388;28;20500;-56
2023/09/16 08:43:09;;;;;;;5.40;4.90;;;24.50;71.90;;;;;;5074503;28;20444;-56
2023/09/16 08:45:43;;;;;;;5.10;4.70;;;24.60;71.70;;;;;;5074528;28;20463;-56
2023/09/16 08:48:15;;;;;;;4.50;4.10;;;24.70;71.40;;;;;;5074349;28;20503;-56
2023/09/16 08:50:43;;;;;;;4.40;4.00;;;24.90;72.10;;;;;;5073838;28;20465;-56
2023/09/16 08:53:12;;;;;;;4.37;3.97;;;25.00;72.30;;;;;;5073821;28;21000;-56
2023/09/16 08:55:39;;;;;;;4.20;3.80;;;25.10;70.90;;;;;;5074176;28;20440;-56
2023/09/16 08:58:08;;;;;;;4.37;3.97;;;25.30;70.60;;;;;;5074066;28;20452;-56
2023/09/16 09:00:36;;;;;;;5.23;4.73;;;25.50;70.00;;;;;;5073928;28;20460;-56
2023/09/16 09:03:02;;;;;;;7.23;3.83;;;25.60;68.70;;;;;;5073778;28;20938;-56
2023/09/16 09:05:32;;;;;;;4.50;3.60;;;25.80;67.40;;;;;;5073967;28;20440;-56
2023/09/16 09:07:59;;;;;;;4.87;4.47;;;26.00;67.30;;;;;;5073905;28;20478;-56
2023/09/16 09:10:26;;;;;;;7.23;4.17;;;26.20;66.00;;;;;;5073863;28;20491;-56
2023/09/16 09:12:54;;;;;;;4.87;4.47;;;26.40;64.80;;;;;;5073748;28;20449;-57
2023/09/16 09:15:23;;;;;;;5.00;4.50;;;26.70;62.90;;;;;;5074893;28;20449;-56
2023/09/16 09:17:55;;;;;;;6.23;5.10;;;26.90;61.80;;;;;;5073770;28;20451;-56
2023/09/16 09:20:25;;;;;;;6.70;4.73;;;27.10;60.40;;;;;;5072804;28;20472;-56
2023/09/16 09:22:54;;;;;;;6.20;4.60;;;27.20;60.70;;;;;;5073623;28;20432;-56
2023/09/16 09:25:22;;;;;;;6.00;4.43;;;27.40;59.90;;;;;;5073560;28;20448;-56
2023/09/16 09:27:50;;;;;;;5.17;4.67;;;27.60;58.90;;;;;;5073577;28;20476;-57
2023/09/16 09:30:19;;;;;;;5.33;4.87;;;27.80;59.60;;;;;;5073457;28;20484;-56
2023/09/16 09:32:46;;;;;;;4.40;3.90;;;28.10;59.10;;;;;;5073616;28;20837;-57
2023/09/16 09:35:14;;;;;;;4.50;4.10;;;28.30;57.50;;;;;;5073322;28;20975;-57
2023/09/16 09:37:41;;;;;;;8.03;5.50;;;28.50;56.80;;;;;;5073652;28;20447;-56
2023/09/16 09:40:11;;;;;;;8.33;6.40;;;28.70;56.20;;;;;;5072780;28;20896;-57
2023/09/16 09:42:42;;;;;;;4.87;4.47;;;28.80;54.10;;;;;;5076146;28;20468;-56
2023/09/16 09:45:09;;;;;;;6.93;6.33;;;28.80;53.80;;;;;;5073526;28;20452;-57
2023/09/16 09:47:37;;;;;;;5.27;4.20;;;29.00;53.40;;;;;;5073495;28;21017;-56
2023/09/16 09:50:07;;;;;;;5.40;4.90;;;29.10;52.80;;;;;;5085236;28;20485;-56
2023/09/16 09:52:34;;;;;;;4.97;4.27;;;29.30;53.90;;;;;;5074634;28;20452;-56
2023/09/16 09:55:02;;;;;;;4.43;4.03;;;29.50;53.80;;;;;;5072989;28;20469;-57
2023/09/16 09:57:30;;;;;;;7.40;5.80;;;29.70;52.60;;;;;;5075043;28;20461;-56
2023/09/16 09:59:58;;;;;;;4.60;4.20;;;30.00;53.10;;;;;;5092621;28;20486;-60
2023/09/16 10:02:26;;;;;;;5.97;4.67;;;30.40;51.00;;;;;;5084399;28;20448;-57
2023/09/16 10:04:58;;;;;;;6.17;5.30;;;30.90;51.00;;;;;;5089850;28;20469;-56
2023/09/16 10:07:25;;;;;;;4.60;4.17;;;31.30;48.00;;;;;;5093421;28;20846;-57
2023/09/16 10:09:52;;;;;;;6.57;5.97;;;31.70;47.40;;;;;;5093308;28;20493;-57
2023/09/16 10:12:19;;;;;;;5.43;4.63;;;32.10;47.50;;;;;;5093305;28;20492;-57
2023/09/16 10:14:48;;;;;;;5.13;4.63;;;32.40;47.00;;;;;;5093342;28;20533;-57
2023/09/16 10:17:15;;;;;;;6.80;5.10;;;32.70;46.80;;;;;;5092982;28;20963;-57
2023/09/16 10:19:43;;;;;;;5.50;5.00;;;33.10;45.80;;;;;;5093298;28;20821;-57
2023/09/16 10:22:11;;;;;;;4.70;4.30;;;33.30;44.60;;;;;;5093341;28;20442;-57
2023/09/16 10:24:40;;;;;;;4.83;4.43;;;33.60;44.20;;;;;;5092773;28;20478;-57
2023/09/16 10:27:14;;;;;;;5.57;5.13;;;34.00;43.40;;;;;;5093351;28;20446;-57
2023/09/16 10:29:43;;;;;;;4.33;4.03;;;34.50;42.60;;;;;;5093172;28;20846;-57
2023/09/16 10:32:12;;;;;;;5.73;5.00;;;34.90;41.10;;;;;;5095367;28;20820;-57
2023/09/16 10:34:41;;;;;;;6.20;5.07;;;35.20;40.10;;;;;;5097276;28;20470;-57
2023/09/16 10:37:08;;;;;;;6.57;4.57;;;35.60;38.60;;;;;;5097138;28;20442;-57
2023/09/16 10:39:38;;;;;;;6.00;5.27;;;35.90;38.20;;;;;;5097108;28;20508;-56
2023/09/16 10:42:06;;;;;;;6.20;5.70;;;36.30;37.20;;;;;;5096766;28;20557;-56
2023/09/16 10:44:34;;;;;;;6.30;5.37;;;36.70;35.00;;;;;;5096966;28;20208;-57
2023/09/16 10:47:04;;;;;;;5.65;5.15;;;37.10;34.40;;;;;;5097095;28;20213;-57
2023/09/16 10:49:32;;;;;;;5.60;5.10;;;37.40;34.30;;;;;;5096751;28;20232;-57
2023/09/16 10:52:04;;;;;;;6.65;4.93;;;37.80;33.80;;;;;;5096878;28;20205;-57
2023/09/16 10:54:41;;;;;;;5.60;5.10;;;38.10;32.90;;;;;;5096925;28;20276;-57
2023/09/16 10:57:16;;;;;;;5.25;4.85;;;38.50;32.40;;;;;;5096633;28;20634;-57
2023/09/16 10:59:44;;;;;;;5.18;4.68;;;38.80;30.00;;;;;;5096723;28;20706;-57
2023/09/16 11:02:19;;;;;;;5.70;5.22;;;39.20;29.30;;;;;;5096956;28;20201;-57
2023/09/16 11:04:48;;;;;;;5.35;4.95;;;39.60;29.20;;;;;;5096989;28;20590;-57
2023/09/16 11:07:15;;;;;;;5.05;4.70;;;40.00;29.30;;;;;;5096732;28;20205;-57
2023/09/16 11:09:43;;;;;;;4.88;4.47;;;40.30;29.00;;;;;;5097103;28;20271;-57
2023/09/16 11:12:10;;;;;;;7.05;4.68;;;40.70;28.80;;;;;;5097091;28;20205;-57
2023/09/16 11:14:38;;;;;;;5.28;4.78;;;41.00;28.10;;;;;;5096740;28;20201;-57
2023/09/16 11:17:12;;;;;;;5.30;4.78;;;41.30;27.60;;;;;;5096950;28;20204;-57
2023/09/16 11:19:38;;;;;;;5.03;4.57;;;41.60;27.30;;;;;;5097221;28;20217;-57
2023/09/16 11:22:07;;;;;;;5.68;4.97;;;42.00;27.70;;;;;;5097152;28;20670;-57
2023/09/16 11:24:35;;;;;;;8.32;5.70;;;42.30;27.10;;;;;;5096993;28;20227;-58
2023/09/16 11:27:02;;;;;;;8.32;4.93;;;42.50;25.60;;;;;;5096768;28;20729;-57
2023/09/16 11:29:31;;;;;;;5.38;4.93;;;42.70;25.60;;;;;;5096903;28;20228;-57
2023/09/16 11:31:58;;;;;;;4.82;4.43;;;42.90;26.00;;;;;;5096173;28;20207;-57
2023/09/16 11:34:27;;;;;;;5.05;4.63;;;43.10;26.20;;;;;;5089777;28;20201;-57
2023/09/16 11:36:55;;;;;;;5.40;4.90;;;43.40;25.90;;;;;;5075909;28;20205;-57
2023/09/16 11:39:33;;;;;;;5.05;4.60;;;43.60;26.00;;;;;;5075940;28;20218;-58
2023/09/16 11:41:59;;;;;;;4.32;3.92;;;43.60;25.70;;;;;;5075348;28;20281;-57
2023/09/16 11:44:27;;;;;;;4.40;4.07;;;43.70;25.80;;;;;;5074438;28;20206;-57
2023/09/16 11:46:55;;;;;;;6.90;5.38;;;43.60;25.80;;;;;;5076655;28;20212;-57
2023/09/16 11:49:21;;;;;;;5.85;4.60;;;43.50;25.40;;;;;;5075397;28;20228;-57
2023/09/16 11:51:50;;;;;;;4.40;4.05;;;43.30;25.50;;;;;;5075485;28;20213;-57
2023/09/16 11:54:18;;;;;;;5.00;4.57;;;43.20;26.20;;;;;;5075616;28;20299;-57
2023/09/16 11:56:46;;;;;;;4.60;4.15;;;43.40;25.70;;;;;;5075322;28;20208;-57
2023/09/16 11:59:13;;;;;;;6.03;4.72;;;43.70;25.70;;;;;;5074976;28;20229;-57
2023/09/16 12:01:40;;;;;;;6.78;5.97;;;44.00;25.40;;;;;;5075217;28;20210;-58
2023/09/16 12:04:10;;;;;;;6.63;6.13;;;44.40;24.80;;;;;;5075155;28;20245;-57
2023/09/16 12:06:38;;;;;;;5.30;4.90;;;44.70;22.80;;;;;;5075856;28;20236;-57
2023/09/16 12:09:07;;;;;;;5.00;4.55;;;44.60;22.30;;;;;;5075092;28;20217;-58
2023/09/16 12:11:36;;;;;;;5.20;4.70;;;44.80;23.20;;;;;;5074946;28;20217;-58
2023/09/16 12:14:06;;;;;;;4.95;4.20;;;45.00;23.40;;;;;;5074875;28;20247;-58
2023/09/16 12:16:33;;;;;;;5.05;4.60;;;45.30;22.90;;;;;;5074706;28;20217;-57
2023/09/16 12:19:00;;;;;;;5.20;4.80;;;45.60;23.30;;;;;;5074834;28;20308;-57
2023/09/16 12:21:27;;;;;;;5.80;5.22;;;45.70;23.00;;;;;;5074857;28;20259;-58
2023/09/16 12:23:55;;;;;;;4.43;4.03;;;45.90;22.60;;;;;;5074568;28;20220;-58
2023/09/16 12:26:22;;;;;;;5.85;5.35;;;46.00;21.60;;;;;;5074708;28;20202;-58
2023/09/16 12:28:48;;;;;;;9.15;4.90;;;46.10;22.50;;;;;;5074355;28;20733;-58
2023/09/16 12:31:21;;;;;;;9.23;5.68;;;46.20;20.90;;;;;;5074566;28;20225;-58
2023/09/16 12:33:53;;;;;;;5.57;5.18;;;46.50;21.80;;;;;;5074640;28;20190;-58
2023/09/16 12:36:22;;;;;;;4.10;3.63;;;46.50;21.00;;;;;;5074586;28;20193;-58
2023/09/16 12:38:51;;;;;;;4.95;4.53;;;46.40;21.50;;;;;;5074180;28;20730;-58
2023/09/16 12:41:18;;;;;;;7.32;4.00;;;46.30;22.20;;;;;;5074456;28;20237;-58
2023/09/16 12:43:46;;;;;;;5.20;4.80;;;46.10;21.20;;;;;;5074447;28;20213;-57
2023/09/16 12:46:14;;;;;;;4.47;4.18;;;45.90;21.70;;;;;;5074554;28;20683;-58
2023/09/16 12:48:47;;;;;;;5.47;5.07;;;45.90;22.20;;;;;;5074392;28;20594;-57